createdAt,value
2022-12-08T00:01:20.665Z,95933.22
2022-12-08T00:03:48.792Z,95918.59
2022-12-08T00:06:42.093Z,95918.63
2022-12-08T00:09:23.868Z,95912.28
2022-12-08T00:11:57.935Z,95920.34
2022-12-08T00:14:28.517Z,95914.31
2022-12-08T00:16:58.584Z,95915.00
2022-12-08T00:19:27.515Z,95916.91
2022-12-08T00:21:56.204Z,95908.56
2022-12-08T00:24:25.569Z,95903.44
2022-12-08T00:26:53.450Z,95901.03
2022-12-08T00:29:21.395Z,95902.75
2022-12-08T00:31:49.340Z,95906.84
2022-12-08T00:34:18.792Z,95907.44
2022-12-08T00:36:47.199Z,95895.69
2022-12-08T00:39:16.723Z,95902.41
2022-12-08T00:42:13.441Z,95894.69
2022-12-08T00:44:41.703Z,95892.84
2022-12-08T00:47:09.584Z,95890.44
2022-12-08T00:49:38.879Z,95883.09
2022-12-08T00:52:06.807Z,95891.59
2022-12-08T00:54:34.741Z,95894.34
2022-12-08T00:57:02.720Z,95891.00
2022-12-08T00:59:30.671Z,95897.56
2022-12-08T01:01:58.586Z,95897.88
2022-12-08T01:04:26.479Z,95894.63
2022-12-08T01:06:56.360Z,95891.13
2022-12-08T01:09:24.405Z,95897.94
2022-12-08T01:11:52.330Z,95891.56
2022-12-08T01:14:20.229Z,95900.66
2022-12-08T01:16:48.416Z,95895.63
2022-12-08T01:19:17.911Z,95890.25
2022-12-08T01:21:46.998Z,95893.41
2022-12-08T01:24:17.982Z,95893.66
2022-12-08T01:26:46.425Z,95888.94
2022-12-08T01:29:14.504Z,95889.84
2022-12-08T01:31:42.457Z,95891.63
2022-12-08T01:34:12.163Z,95879.97
2022-12-08T01:36:40.229Z,95885.78
2022-12-08T01:39:09.357Z,95885.47
2022-12-08T01:41:40.670Z,95880.56
2022-12-08T01:44:45.867Z,95873.13
2022-12-08T01:47:13.782Z,95869.56
2022-12-08T01:49:41.735Z,95869.00
2022-12-08T01:52:13.083Z,95866.88
2022-12-08T01:54:44.853Z,95864.47
2022-12-08T01:57:16.747Z,95868.53
2022-12-08T01:59:49.711Z,95858.66
2022-12-08T02:02:17.755Z,95860.78
2022-12-08T02:04:45.705Z,95856.66
2022-12-08T02:07:14.620Z,95856.72
2022-12-08T02:09:43.046Z,95848.38
2022-12-08T02:12:11.457Z,95849.03
2022-12-08T02:14:41.127Z,95849.28
2022-12-08T02:17:18.073Z,95850.00
2022-12-08T02:20:13.214Z,95852.38
2022-12-08T02:22:47.879Z,95848.44
2022-12-08T02:25:20.785Z,95846.19
2022-12-08T02:27:53.763Z,95839.41
2022-12-08T02:30:26.079Z,95838.31
2022-12-08T02:33:11.391Z,95838.09
2022-12-08T02:35:46.183Z,95836.38
2022-12-08T02:38:19.169Z,95835.09
2022-12-08T02:40:51.661Z,95832.19
2022-12-08T02:43:25.021Z,95830.25
2022-12-08T02:45:56.469Z,95828.84
2022-12-08T02:48:24.427Z,95835.97
2022-12-08T02:50:53.708Z,95825.63
2022-12-08T02:53:21.602Z,95824.66
2022-12-08T02:55:57.847Z,95819.66
2022-12-08T02:58:39.071Z,95813.28
2022-12-08T03:01:18.718Z,95808.19
2022-12-08T03:03:49.318Z,95812.94
2022-12-08T03:06:26.773Z,95799.66
2022-12-08T03:08:57.589Z,95801.72
2022-12-08T03:11:31.490Z,95797.06
2022-12-08T03:14:01.900Z,95797.72
2022-12-08T03:16:32.148Z,95799.06
2022-12-08T03:19:02.971Z,95804.03
2022-12-08T03:21:32.796Z,95794.53
2022-12-08T03:24:03.911Z,95795.44
2022-12-08T03:26:34.997Z,95794.50
2022-12-08T03:29:02.993Z,95792.28
2022-12-08T03:31:32.964Z,95791.75
2022-12-08T03:34:01.338Z,95786.06
2022-12-08T03:36:29.646Z,95785.78
2022-12-08T03:38:58.915Z,95778.16
2022-12-08T03:41:27.028Z,95773.13
2022-12-08T03:43:56.416Z,95776.34
2022-12-08T03:48:52.478Z,95778.53
2022-12-08T03:51:20.731Z,95758.47
2022-12-08T03:53:49.018Z,95770.00
2022-12-08T03:56:24.920Z,95757.75
2022-12-08T03:58:52.981Z,95754.28
2022-12-08T04:01:21.016Z,95751.03
2022-12-08T04:03:49.392Z,95753.44
2022-12-08T04:06:18.078Z,95755.63
2022-12-08T04:08:46.002Z,95755.56
2022-12-08T04:11:13.987Z,95750.22
2022-12-08T04:13:43.699Z,95747.09
2022-12-08T04:16:16.782Z,95746.38
2022-12-08T04:18:44.733Z,95756.00
2022-12-08T04:21:12.665Z,95752.03
2022-12-08T04:23:40.617Z,95745.88
2022-12-08T04:26:09.268Z,95749.44
2022-12-08T04:28:37.287Z,95742.56
2022-12-08T04:31:07.010Z,95744.47
2022-12-08T04:33:35.284Z,95742.81
2022-12-08T04:36:03.674Z,95743.94
2022-12-08T04:38:31.671Z,95741.22
2022-12-08T04:40:59.594Z,95740.53
2022-12-08T04:43:27.484Z,95745.50
2022-12-08T04:45:55.380Z,95732.03
2022-12-08T04:48:24.687Z,95733.72
2022-12-08T04:50:52.659Z,95731.19
2022-12-08T04:53:21.327Z,95720.31
2022-12-08T04:55:49.822Z,95725.06
2022-12-08T04:58:19.520Z,95726.16
2022-12-08T05:00:48.156Z,95717.56
2022-12-08T05:03:16.889Z,95719.38
2022-12-08T05:05:46.937Z,95730.97
2022-12-08T05:08:21.551Z,95732.13
2022-12-08T05:10:49.484Z,95724.66
2022-12-08T05:13:17.511Z,95717.81
2022-12-08T05:15:45.421Z,95727.22
2022-12-08T05:18:13.650Z,95716.41
2022-12-08T05:20:41.541Z,95718.72
2022-12-08T05:23:10.781Z,95715.50
2022-12-08T05:25:38.702Z,95709.53
2022-12-08T05:28:39.637Z,95719.09
2022-12-08T05:30:54.596Z,95717.78
2022-12-08T05:33:22.477Z,95710.13
2022-12-08T05:35:50.380Z,95708.19
2022-12-08T05:38:20.436Z,95711.09
2022-12-08T05:40:48.339Z,95704.41
2022-12-08T05:43:16.355Z,95713.38
2022-12-08T05:45:44.278Z,95711.94
2022-12-08T05:48:12.216Z,95703.44
2022-12-08T05:50:40.748Z,95699.31
2022-12-08T05:53:08.618Z,95700.25
2022-12-08T05:55:37.931Z,95701.47
2022-12-08T05:58:07.979Z,95701.88
2022-12-08T06:00:36.108Z,95699.75
2022-12-08T06:03:04.203Z,95703.91
2022-12-08T06:05:33.988Z,95697.38
2022-12-08T06:08:01.970Z,95703.75
2022-12-08T06:10:31.006Z,95702.44
2022-12-08T06:13:00.908Z,95696.34
2022-12-08T06:15:28.948Z,95702.44
2022-12-08T06:17:56.865Z,95696.75
2022-12-08T06:20:24.731Z,95696.59
2022-12-08T06:22:52.645Z,95694.38
2022-12-08T06:25:20.531Z,95700.91
2022-12-08T06:27:48.485Z,95694.69
2022-12-08T06:30:18.604Z,95697.03
2022-12-08T06:32:46.526Z,95695.66
2022-12-08T06:35:14.463Z,95702.94
2022-12-08T06:37:42.348Z,95690.84
2022-12-08T06:40:11.212Z,95696.16
2022-12-08T06:42:44.698Z,95693.88
2022-12-08T06:45:14.409Z,95685.47
2022-12-08T06:47:43.918Z,95696.53
2022-12-08T06:50:14.593Z,95688.13
2022-12-08T06:52:54.313Z,95688.69
2022-12-08T06:55:57.477Z,95685.50
2022-12-08T06:58:14.767Z,95691.84
2022-12-08T07:00:43.386Z,95700.03
2022-12-08T07:03:13.815Z,95689.28
2022-12-08T07:05:41.857Z,95699.31
2022-12-08T07:08:10.269Z,95693.22
2022-12-08T07:10:38.583Z,95693.44
2022-12-08T07:13:06.535Z,95699.22
2022-12-08T07:15:34.467Z,95695.13
2022-12-08T07:18:02.492Z,95697.63
2022-12-08T07:20:31.787Z,95697.41
2022-12-08T07:22:59.710Z,95687.75
2022-12-08T07:25:27.728Z,95699.03
2022-12-08T07:27:55.655Z,95698.63
2022-12-08T07:30:23.583Z,95696.06
2022-12-08T07:32:51.498Z,95692.09
2022-12-08T07:35:20.136Z,95696.63
2022-12-08T07:37:49.408Z,95695.28
2022-12-08T07:40:17.823Z,95695.38
2022-12-08T07:42:45.722Z,95696.03
2022-12-08T07:45:13.656Z,95694.94
2022-12-08T07:47:41.519Z,95690.66
2022-12-08T07:50:09.941Z,95688.13
2022-12-08T07:52:37.851Z,95697.22
2022-12-08T07:55:08.262Z,95693.63
2022-12-08T07:57:36.227Z,95691.50
2022-12-08T08:00:06.646Z,95693.38
2022-12-08T08:02:34.904Z,95690.47
2022-12-08T08:05:03.155Z,95694.06
2022-12-08T08:07:32.248Z,95691.31
2022-12-08T08:10:00.279Z,95690.44
2022-12-08T08:12:31.871Z,95687.22
2022-12-08T08:15:00.278Z,95685.63
2022-12-08T08:17:28.538Z,95701.75
2022-12-08T08:19:56.693Z,95691.44
2022-12-08T08:22:25.658Z,95691.75
2022-12-08T08:24:53.572Z,95690.94
2022-12-08T08:27:21.513Z,95703.44
2022-12-08T08:29:50.827Z,95701.19
2022-12-08T08:32:18.723Z,95703.56
2022-12-08T08:34:46.598Z,95699.06
2022-12-08T08:37:14.506Z,95696.69
2022-12-08T08:39:43.112Z,95699.41
2022-12-08T08:42:11.136Z,95692.16
2022-12-08T08:44:39.135Z,95700.13
2022-12-08T08:47:08.429Z,95701.28
2022-12-08T08:49:36.459Z,95701.47
2022-12-08T08:52:05.425Z,95701.84
2022-12-08T08:54:33.378Z,95706.47
2022-12-08T08:57:02.374Z,95703.19
2022-12-08T08:59:30.411Z,95708.84
2022-12-08T09:01:58.338Z,95704.53
2022-12-08T09:04:27.840Z,95702.44
2022-12-08T09:06:55.865Z,95709.22
2022-12-08T09:09:23.819Z,95712.44
2022-12-08T09:11:51.744Z,95707.34
2022-12-08T09:14:20.085Z,95696.31
2022-12-08T09:16:48.210Z,95699.78
2022-12-08T09:19:16.375Z,95694.91
2022-12-08T09:21:45.745Z,95696.56
2022-12-08T09:24:15.969Z,95696.88
2022-12-08T09:26:44.634Z,95702.22
2022-12-08T09:29:13.745Z,95695.81
2022-12-08T09:31:41.948Z,95700.84
2022-12-08T09:34:10.427Z,95698.03
2022-12-08T09:36:38.434Z,95697.66
2022-12-08T09:39:07.776Z,95690.00
2022-12-08T09:41:42.065Z,95688.13
2022-12-08T09:44:30.163Z,95681.75
2022-12-08T09:46:59.191Z,95679.22
2022-12-08T09:49:34.513Z,95675.66
2022-12-08T09:52:02.587Z,95678.38
2022-12-08T09:54:34.698Z,95670.59
2022-12-08T09:57:06.933Z,95668.31
2022-12-08T09:59:35.948Z,95660.56
2022-12-08T10:02:05.943Z,95665.84
2022-12-08T10:04:36.468Z,95663.16
2022-12-08T10:07:07.412Z,95653.91
2022-12-08T10:09:41.345Z,95652.84
2022-12-08T10:12:17.075Z,95658.22
2022-12-08T10:14:47.475Z,95646.66
2022-12-08T10:17:19.257Z,95648.63
2022-12-08T10:19:48.116Z,95647.19
2022-12-08T10:22:23.151Z,95640.06
2022-12-08T10:24:58.942Z,95634.81
2022-12-08T10:27:27.033Z,95634.59
2022-12-08T10:29:54.965Z,95621.41
2022-12-08T10:32:24.145Z,95617.56
2022-12-08T10:35:04.363Z,95615.13
2022-12-08T10:37:32.274Z,95605.69
2022-12-08T10:40:03.435Z,95601.44
2022-12-08T10:42:36.668Z,95600.81
2022-12-08T10:45:23.134Z,95590.75
2022-12-08T10:47:59.464Z,95591.72
2022-12-08T10:50:32.528Z,95587.75
2022-12-08T10:53:01.722Z,95580.50
2022-12-08T10:55:40.976Z,95579.59
2022-12-08T10:58:27.317Z,95580.75
2022-12-08T11:00:57.017Z,95572.41
2022-12-08T11:03:29.804Z,95568.66
2022-12-08T11:06:02.822Z,95567.84
2022-12-08T11:08:35.312Z,95567.91
2022-12-08T11:11:05.071Z,95572.53
2022-12-08T11:13:33.047Z,95572.00
2022-12-08T11:16:01.015Z,95563.84
2022-12-08T11:18:30.992Z,95559.78
2022-12-08T11:21:04.084Z,95555.91
2022-12-08T11:23:32.025Z,95554.50
2022-12-08T11:26:09.032Z,95549.34
2022-12-08T11:28:37.738Z,95545.31
2022-12-08T11:31:20.439Z,95545.78
2022-12-08T11:33:50.169Z,95544.94
2022-12-08T11:36:18.242Z,95540.13
2022-12-08T11:38:48.553Z,95540.03
2022-12-08T11:41:19.041Z,95535.00
2022-12-08T11:43:49.729Z,95535.09
2022-12-08T11:46:21.817Z,95534.53
2022-12-08T11:48:51.975Z,95533.91
2022-12-08T11:51:24.224Z,95533.16
2022-12-08T11:54:14.621Z,95527.94
2022-12-08T11:56:46.661Z,95531.09
2022-12-08T11:59:20.387Z,95523.63
2022-12-08T12:01:48.427Z,95521.38
2022-12-08T12:04:22.292Z,95531.34
2022-12-08T12:07:26.022Z,95530.53
2022-12-08T12:10:12.165Z,95516.50
2022-12-08T12:12:52.379Z,95514.03
2022-12-08T12:15:35.249Z,95516.84
2022-12-08T12:18:04.820Z,95520.19
2022-12-08T12:20:35.287Z,95513.09
2022-12-08T12:23:06.477Z,95517.78
2022-12-08T12:25:36.255Z,95514.31
2022-12-08T12:28:08.162Z,95504.56
2022-12-08T12:30:52.946Z,95505.00
2022-12-08T12:33:21.612Z,95501.97
2022-12-08T12:35:49.905Z,95499.41
2022-12-08T12:38:40.885Z,95498.50
2022-12-08T12:41:09.303Z,95502.28
2022-12-08T12:43:39.996Z,95491.63
2022-12-08T12:46:42.054Z,95502.78
2022-12-08T12:49:48.741Z,95503.78
2022-12-08T12:52:53.234Z,95497.06
2022-12-08T12:55:49.615Z,95505.19
2022-12-08T12:58:37.067Z,95502.84
2022-12-08T13:01:46.432Z,95499.06
2022-12-08T13:04:14.496Z,95491.94
2022-12-08T13:06:44.581Z,95496.06
2022-12-08T13:09:24.904Z,95487.63
2022-12-08T13:11:55.232Z,95491.81
2022-12-08T13:14:35.107Z,95495.53
2022-12-08T13:17:08.804Z,95492.09
2022-12-08T13:19:38.131Z,95487.13
2022-12-08T13:22:44.654Z,95488.75
2022-12-08T13:25:46.005Z,95482.97
2022-12-08T13:28:19.939Z,95482.94
2022-12-08T13:30:48.908Z,95486.91
2022-12-08T13:33:21.012Z,95484.03
2022-12-08T13:35:53.329Z,95486.38
2022-12-08T13:38:23.627Z,95482.75
2022-12-08T13:40:51.952Z,95484.56
2022-12-08T13:43:32.169Z,95489.78
2022-12-08T13:57:28.732Z,95502.13
2022-12-08T14:00:01.270Z,95500.66
2022-12-08T14:02:31.912Z,95505.53
2022-12-08T14:05:34.893Z,95502.28
2022-12-08T14:07:51.010Z,95508.72
2022-12-08T14:10:21.373Z,95509.88
2022-12-08T14:12:53.623Z,95508.41
2022-12-08T14:15:22.337Z,95511.44
2022-12-08T14:17:53.352Z,95505.09
2022-12-08T14:20:25.902Z,95501.84
2022-12-08T14:22:54.460Z,95507.22
2022-12-08T14:25:24.046Z,95501.06
2022-12-08T14:27:58.077Z,95515.13
2022-12-08T14:30:26.515Z,95507.03
2022-12-08T14:32:56.522Z,95505.28
2022-12-08T14:35:28.781Z,95509.47
2022-12-08T14:37:58.586Z,95504.34
2022-12-08T14:40:33.667Z,95506.88
2022-12-08T14:43:14.671Z,95503.41
2022-12-08T14:45:48.876Z,95507.13
2022-12-08T14:48:20.908Z,95506.47
2022-12-08T14:51:01.750Z,95491.69
2022-12-08T14:53:32.529Z,95499.69
2022-12-08T14:56:00.432Z,95505.44
2022-12-08T14:58:30.192Z,95505.19
2022-12-08T15:00:59.664Z,95508.97
2022-12-08T15:03:28.845Z,95510.56
2022-12-08T15:06:00.250Z,95505.13
2022-12-08T15:08:28.287Z,95501.75
2022-12-08T15:11:26.085Z,95502.75
2022-12-08T15:13:55.292Z,95511.66
2022-12-08T15:16:27.137Z,95513.53
2022-12-08T15:19:05.395Z,95508.97
2022-12-08T15:21:38.438Z,95511.59
2022-12-08T15:24:06.743Z,95511.03
2022-12-08T15:26:41.400Z,95506.00
2022-12-08T15:29:14.301Z,95514.41
2022-12-08T15:31:42.266Z,95514.16
2022-12-08T15:34:10.180Z,95509.53
2022-12-08T15:36:40.096Z,95503.66
2022-12-08T15:39:15.903Z,95502.34
2022-12-08T15:41:43.820Z,95499.25
2022-12-08T15:44:11.703Z,95504.56
2022-12-08T15:46:39.664Z,95503.91
2022-12-08T15:49:07.616Z,95497.16
2022-12-08T15:51:36.803Z,95500.22
2022-12-08T15:54:06.206Z,95495.56
2022-12-08T15:56:34.432Z,95509.47
2022-12-08T15:59:05.335Z,95503.06
2022-12-08T16:01:33.364Z,95502.31
2022-12-08T16:07:20.143Z,95502.34
2022-12-08T16:09:41.892Z,95500.44
2022-12-08T16:12:57.158Z,95502.53
2022-12-08T16:18:15.696Z,95506.03
2022-12-08T16:21:08.092Z,95512.84
2022-12-08T16:23:42.957Z,95507.84
2022-12-08T16:26:35.633Z,95504.47
2022-12-08T16:29:02.261Z,95499.94
2022-12-08T16:31:30.352Z,95499.34
2022-12-08T16:33:58.347Z,95501.09
2022-12-08T16:36:26.224Z,95501.72
2022-12-08T16:38:54.151Z,95510.63
2022-12-08T16:41:40.601Z,95504.47
2022-12-08T16:44:08.475Z,95508.63
2022-12-08T16:46:37.031Z,95505.28
2022-12-08T16:49:06.151Z,95509.31
2022-12-08T16:51:34.047Z,95510.63
2022-12-08T16:54:02.043Z,95511.16
2022-12-08T16:56:33.492Z,95513.38
2022-12-08T16:59:02.765Z,95518.09
2022-12-08T17:01:30.964Z,95507.75
2022-12-08T17:06:46.959Z,95508.63
2022-12-08T17:09:14.940Z,95519.88
2022-12-08T17:11:44.463Z,95509.06
2022-12-08T17:14:12.778Z,95507.16
2022-12-08T17:16:40.869Z,95507.22
2022-12-08T17:19:09.106Z,95504.56
2022-12-08T17:21:37.033Z,95502.59
2022-12-08T17:24:05.244Z,95507.34
2022-12-08T17:26:33.166Z,95503.47
2022-12-08T17:29:03.889Z,95502.19
2022-12-08T17:31:32.952Z,95508.03
2022-12-08T17:34:01.426Z,95508.28
2022-12-08T17:36:29.371Z,95492.97
2022-12-08T17:38:59.471Z,95504.34
2022-12-08T17:41:27.435Z,95497.81
2022-12-08T17:43:55.357Z,95499.06
2022-12-08T17:46:24.910Z,95493.13
2022-12-08T17:48:53.348Z,95495.66
2022-12-08T17:51:21.261Z,95493.88
2022-12-08T17:53:49.199Z,95490.47
2022-12-08T17:56:18.972Z,95480.41
2022-12-08T17:58:51.321Z,95482.31
2022-12-08T18:01:22.442Z,95483.41
2022-12-08T18:03:52.304Z,95494.56
2022-12-08T18:06:20.305Z,95480.91
2022-12-08T18:08:48.302Z,95485.13
2022-12-08T18:11:17.797Z,95485.81
2022-12-08T18:13:46.351Z,95484.38
2022-12-08T18:16:14.529Z,95474.94
2022-12-08T18:18:42.503Z,95471.06
2022-12-08T18:21:12.006Z,95480.19
2022-12-08T18:23:41.713Z,95477.94
2022-12-08T18:26:10.964Z,95466.66
2022-12-08T18:28:39.310Z,95472.84
2022-12-08T18:31:10.085Z,95464.09
2022-12-08T18:33:38.215Z,95456.88
2022-12-08T18:36:09.345Z,95468.19
2022-12-08T18:38:39.496Z,95472.81
2022-12-08T18:41:10.123Z,95471.72
2022-12-08T18:43:38.337Z,95479.25
2022-12-08T18:46:09.419Z,95480.69
2022-12-08T18:48:37.907Z,95480.78
2022-12-08T18:51:10.463Z,95484.72
2022-12-08T18:53:39.841Z,95488.34
2022-12-08T18:56:08.622Z,95487.63
2022-12-08T18:58:36.879Z,95481.69
2022-12-08T19:01:04.850Z,95482.16
2022-12-08T19:03:32.847Z,95476.44
2022-12-08T19:06:04.982Z,95479.19
2022-12-08T19:08:33.003Z,95479.97
2022-12-08T19:11:02.723Z,95482.88
2022-12-08T19:13:31.908Z,95477.59
2022-12-08T19:15:59.888Z,95469.25
2022-12-08T19:18:27.877Z,95476.91
2022-12-08T19:20:56.905Z,95473.06
2022-12-08T19:23:24.846Z,95476.06
2022-12-08T19:25:52.782Z,95475.09
2022-12-08T19:28:22.031Z,95469.56
2022-12-08T19:30:49.977Z,95466.59
2022-12-08T19:33:18.010Z,95472.72
2022-12-08T19:35:52.213Z,95473.34
2022-12-08T19:38:20.791Z,95476.88
2022-12-08T19:41:08.298Z,95471.53
2022-12-08T19:43:54.847Z,95469.75
2022-12-08T19:46:22.898Z,95466.22
2022-12-08T19:48:50.897Z,95466.28
2022-12-08T19:51:18.880Z,95463.34
2022-12-08T19:53:47.957Z,95469.44
2022-12-08T19:56:16.130Z,95462.00
2022-12-08T19:58:45.453Z,95465.44
2022-12-08T20:01:13.500Z,95467.00
2022-12-08T20:03:41.497Z,95467.50
2022-12-08T20:06:14.323Z,95471.25
2022-12-08T20:08:47.544Z,95464.53
2022-12-08T20:11:18.270Z,95475.34
2022-12-08T20:13:47.928Z,95469.72
2022-12-08T20:16:16.678Z,95465.44
2022-12-08T20:18:45.987Z,95469.94
2022-12-08T20:21:13.899Z,95470.09
2022-12-08T20:23:41.841Z,95471.09
2022-12-08T20:26:15.629Z,95460.13
2022-12-08T20:28:43.582Z,95469.91
2022-12-08T20:31:19.640Z,95471.34
2022-12-08T20:33:48.245Z,95466.53
2022-12-08T20:36:18.750Z,95462.03
2022-12-08T20:38:46.806Z,95452.88
2022-12-08T20:41:16.112Z,95456.28
2022-12-08T20:43:44.138Z,95465.38
2022-12-08T20:46:14.395Z,95460.22
2022-12-08T20:48:44.935Z,95457.94
2022-12-08T20:51:14.324Z,95460.78
2022-12-08T20:53:42.240Z,95462.63
2022-12-08T20:56:15.147Z,95463.50
2022-12-08T20:58:44.067Z,95459.88
2022-12-08T21:01:12.894Z,95462.16
2022-12-08T21:03:41.564Z,95456.66
2022-12-08T21:06:11.538Z,95453.25
2022-12-08T21:08:40.446Z,95463.25
2022-12-08T21:11:09.738Z,95459.16
2022-12-08T21:13:37.998Z,95454.81
2022-12-08T21:16:06.668Z,95464.47
2022-12-08T21:18:39.477Z,95456.25
2022-12-08T21:21:11.306Z,95454.47
2022-12-08T21:23:39.386Z,95462.72
2022-12-08T21:26:13.077Z,95460.06
2022-12-08T21:28:41.660Z,95463.44
2022-12-08T21:31:09.873Z,95453.66
2022-12-08T21:33:37.978Z,95456.78
2022-12-08T21:36:08.780Z,95457.88
2022-12-08T21:38:39.464Z,95457.09
2022-12-08T21:41:09.431Z,95458.22
2022-12-08T21:43:37.840Z,95452.31
2022-12-08T21:46:15.903Z,95460.28
2022-12-08T21:48:43.974Z,95455.25
2022-12-08T21:51:11.997Z,95454.50
2022-12-08T21:53:41.386Z,95455.59
2022-12-08T21:56:10.264Z,95460.78
2022-12-08T21:58:39.809Z,95455.59
2022-12-08T22:01:08.920Z,95450.16
2022-12-08T22:03:37.772Z,95436.75
2022-12-08T22:06:07.040Z,95445.41
2022-12-08T22:08:35.415Z,95444.06
2022-12-08T22:11:05.265Z,95450.72
2022-12-08T22:13:35.374Z,95446.97
2022-12-08T22:16:04.904Z,95442.59
2022-12-08T22:18:33.269Z,95437.47
2022-12-08T22:21:01.537Z,95443.09
2022-12-08T22:23:30.042Z,95441.53
2022-12-08T22:25:58.808Z,95447.28
2022-12-08T22:28:29.559Z,95440.28
2022-12-08T22:30:57.482Z,95441.53
2022-12-08T22:33:25.653Z,95437.91
2022-12-08T22:35:57.472Z,95439.91
2022-12-08T22:38:25.938Z,95449.38
2022-12-08T22:40:54.271Z,95450.13
2022-12-08T22:43:22.685Z,95440.72
2022-12-08T22:45:52.047Z,95439.56
2022-12-08T22:48:20.197Z,95436.75
2022-12-08T22:50:48.205Z,95437.28
2022-12-08T22:53:16.322Z,95443.03
2022-12-08T22:55:44.775Z,95437.63
2022-12-08T22:58:12.759Z,95432.56
2022-12-08T23:00:40.722Z,95434.09
2022-12-08T23:03:10.406Z,95435.53
2022-12-08T23:05:40.644Z,95424.78
2022-12-08T23:08:10.041Z,95433.00
2022-12-08T23:10:37.964Z,95434.88
2022-12-08T23:13:05.870Z,95431.66
2022-12-08T23:15:35.114Z,95430.31
2022-12-08T23:18:03.138Z,95432.16
2022-12-08T23:20:32.935Z,95436.25
2022-12-08T23:23:00.889Z,95438.31
2022-12-08T23:25:28.768Z,95443.28
2022-12-08T23:27:56.661Z,95436.69
2022-12-08T23:30:24.640Z,95436.91
2022-12-08T23:32:56.281Z,95422.03
2022-12-08T23:35:24.416Z,95426.94
2022-12-08T23:37:53.814Z,95434.78
2022-12-08T23:40:21.698Z,95430.16
2022-12-08T23:42:49.721Z,95427.53
2022-12-08T23:45:17.674Z,95419.72
2022-12-08T23:47:45.614Z,95424.84
2022-12-08T23:50:13.624Z,95415.19
2022-12-08T23:52:41.665Z,95402.78
2022-12-08T23:55:11.784Z,95393.69
2022-12-08T23:57:39.730Z,95391.81
